sensor_id;sensor_type;location;lat;lon;timestamp;P1;durP1;ratioP1;P2;durP2;ratioP2
60464;SDS011;46314;52.392;9.758;2024-03-23T00:54:33;20.25;;;11.52;;
60464;SDS011;46314;52.392;9.758;2024-03-23T00:56:59;20.00;;;11.95;;
60464;SDS011;46314;52.392;9.758;2024-03-23T00:59:24;19.50;;;11.73;;
60464;SDS011;46314;52.392;9.758;2024-03-23T01:01:50;19.40;;;10.02;;
60464;SDS011;46314;52.392;9.758;2024-03-23T01:04:15;20.15;;;10.55;;
60464;SDS011;46314;52.392;9.758;2024-03-23T01:06:41;19.92;;;10.82;;
60464;SDS011;46314;52.392;9.758;2024-03-23T01:09:06;15.75;;;9.23;;
60464;SDS011;46314;52.392;9.758;2024-03-23T01:11:33;17.05;;;9.60;;
60464;SDS011;46314;52.392;9.758;2024-03-23T01:13:59;20.63;;;10.75;;
60464;SDS011;46314;52.392;9.758;2024-03-23T01:16:24;19.02;;;9.88;;
60464;SDS011;46314;52.392;9.758;2024-03-23T01:18:50;16.83;;;9.32;;
60464;SDS011;46314;52.392;9.758;2024-03-23T01:21:15;23.70;;;11.23;;
60464;SDS011;46314;52.392;9.758;2024-03-23T01:23:40;18.75;;;8.65;;
60464;SDS011;46314;52.392;9.758;2024-03-23T01:26:06;22.83;;;8.50;;
60464;SDS011;46314;52.392;9.758;2024-03-23T01:28:33;14.23;;;7.03;;
60464;SDS011;46314;52.392;9.758;2024-03-23T01:30:59;12.50;;;7.07;;
60464;SDS011;46314;52.392;9.758;2024-03-23T01:33:24;13.23;;;7.28;;
60464;SDS011;46314;52.392;9.758;2024-03-23T01:35:50;12.43;;;6.10;;
60464;SDS011;46314;52.392;9.758;2024-03-23T01:38:15;16.75;;;7.32;;
60464;SDS011;46314;52.392;9.758;2024-03-23T01:40:41;14.35;;;6.20;;
60464;SDS011;46314;52.392;9.758;2024-03-23T01:43:07;12.60;;;6.18;;
60464;SDS011;46314;52.392;9.758;2024-03-23T01:45:34;12.15;;;6.05;;
60464;SDS011;46314;52.392;9.758;2024-03-23T01:48:00;14.13;;;6.07;;
60464;SDS011;46314;52.392;9.758;2024-03-23T01:50:26;10.82;;;5.93;;
60464;SDS011;46314;52.392;9.758;2024-03-23T01:52:52;20.20;;;7.05;;
60464;SDS011;46314;52.392;9.758;2024-03-23T01:55:18;14.55;;;7.05;;
60464;SDS011;46314;52.392;9.758;2024-03-23T01:57:44;15.23;;;6.95;;
60464;SDS011;46314;52.392;9.758;2024-03-23T02:00:10;14.40;;;6.60;;
60464;SDS011;46314;52.392;9.758;2024-03-23T02:02:37;14.32;;;6.63;;
60464;SDS011;46314;52.392;9.758;2024-03-23T02:05:07;11.88;;;6.30;;
60464;SDS011;46314;52.392;9.758;2024-03-23T02:07:32;11.80;;;6.35;;
60464;SDS011;46314;52.392;9.758;2024-03-23T02:09:58;16.52;;;6.65;;
60464;SDS011;46314;52.392;9.758;2024-03-23T02:12:23;16.15;;;7.07;;
60464;SDS011;46314;52.392;9.758;2024-03-23T02:14:49;19.08;;;7.85;;
60464;SDS011;46314;52.392;9.758;2024-03-23T02:17:14;13.07;;;6.78;;
60464;SDS011;46314;52.392;9.758;2024-03-23T02:19:41;14.05;;;6.78;;
60464;SDS011;46314;52.392;9.758;2024-03-23T02:22:06;15.68;;;7.07;;
60464;SDS011;46314;52.392;9.758;2024-03-23T02:24:33;14.80;;;6.85;;
60464;SDS011;46314;52.392;9.758;2024-03-23T02:26:59;16.80;;;8.27;;
60464;SDS011;46314;52.392;9.758;2024-03-23T02:29:24;14.77;;;7.55;;
60464;SDS011;46314;52.392;9.758;2024-03-23T02:31:50;16.85;;;7.93;;
60464;SDS011;46314;52.392;9.758;2024-03-23T02:34:15;15.55;;;7.70;;
60464;SDS011;46314;52.392;9.758;2024-03-23T02:36:41;18.20;;;7.68;;
60464;SDS011;46314;52.392;9.758;2024-03-23T02:39:06;15.48;;;6.40;;
60464;SDS011;46314;52.392;9.758;2024-03-23T02:41:33;13.90;;;7.07;;
60464;SDS011;46314;52.392;9.758;2024-03-23T02:43:58;18.02;;;7.95;;
60464;SDS011;46314;52.392;9.758;2024-03-23T02:46:24;15.65;;;7.60;;
60464;SDS011;46314;52.392;9.758;2024-03-23T02:48:49;20.15;;;8.13;;
60464;SDS011;46314;52.392;9.758;2024-03-23T02:51:15;18.02;;;7.57;;
60464;SDS011;46314;52.392;9.758;2024-03-23T02:53:40;19.02;;;8.55;;
60464;SDS011;46314;52.392;9.758;2024-03-23T02:56:06;17.90;;;8.32;;
60464;SDS011;46314;52.392;9.758;2024-03-23T02:58:33;14.75;;;7.15;;
60464;SDS011;46314;52.392;9.758;2024-03-23T03:00:58;22.75;;;8.93;;
60464;SDS011;46314;52.392;9.758;2024-03-23T03:03:24;17.70;;;7.45;;
60464;SDS011;46314;52.392;9.758;2024-03-23T03:05:54;18.77;;;8.60;;
60464;SDS011;46314;52.392;9.758;2024-03-23T03:08:20;16.45;;;7.30;;
60464;SDS011;46314;52.392;9.758;2024-03-23T03:10:45;16.35;;;7.82;;
60464;SDS011;46314;52.392;9.758;2024-03-23T03:13:11;16.02;;;7.47;;
60464;SDS011;46314;52.392;9.758;2024-03-23T03:15:38;19.63;;;7.85;;
60464;SDS011;46314;52.392;9.758;2024-03-23T03:18:05;15.75;;;8.27;;
60464;SDS011;46314;52.392;9.758;2024-03-23T03:20:30;9.88;;;6.72;;
60464;SDS011;46314;52.392;9.758;2024-03-23T03:22:56;15.30;;;7.35;;
60464;SDS011;46314;52.392;9.758;2024-03-23T03:25:21;18.05;;;6.93;;
60464;SDS011;46314;52.392;9.758;2024-03-23T03:27:47;15.20;;;6.18;;
60464;SDS011;46314;52.392;9.758;2024-03-23T03:30:12;15.48;;;7.15;;
60464;SDS011;46314;52.392;9.758;2024-03-23T03:32:39;11.50;;;6.65;;
60464;SDS011;46314;52.392;9.758;2024-03-23T03:35:05;15.07;;;6.80;;
60464;SDS011;46314;52.392;9.758;2024-03-23T03:37:31;12.38;;;7.20;;
60464;SDS011;46314;52.392;9.758;2024-03-23T03:39:56;18.20;;;7.82;;
60464;SDS011;46314;52.392;9.758;2024-03-23T03:42:22;18.48;;;6.82;;
60464;SDS011;46314;52.392;9.758;2024-03-23T03:44:47;22.95;;;8.55;;
60464;SDS011;46314;52.392;9.758;2024-03-23T03:47:13;21.63;;;8.95;;
60464;SDS011;46314;52.392;9.758;2024-03-23T03:49:39;15.63;;;8.35;;
60464;SDS011;46314;52.392;9.758;2024-03-23T03:52:05;20.17;;;7.88;;
60464;SDS011;46314;52.392;9.758;2024-03-23T03:54:31;16.98;;;7.35;;
60464;SDS011;46314;52.392;9.758;2024-03-23T03:56:56;14.15;;;6.85;;
60464;SDS011;46314;52.392;9.758;2024-03-23T03:59:22;12.95;;;6.95;;
60464;SDS011;46314;52.392;9.758;2024-03-23T04:01:47;15.85;;;7.78;;
60464;SDS011;46314;52.392;9.758;2024-03-23T04:04:12;12.00;;;6.47;;
60464;SDS011;46314;52.392;9.758;2024-03-23T04:06:39;13.15;;;6.80;;
60464;SDS011;46314;52.392;9.758;2024-03-23T04:09:05;18.08;;;6.35;;
60464;SDS011;46314;52.392;9.758;2024-03-23T04:11:30;17.73;;;7.90;;
60464;SDS011;46314;52.392;9.758;2024-03-23T04:13:56;14.45;;;7.22;;
60464;SDS011;46314;52.392;9.758;2024-03-23T04:16:24;14.93;;;7.55;;
60464;SDS011;46314;52.392;9.758;2024-03-23T04:18:51;12.48;;;6.78;;
60464;SDS011;46314;52.392;9.758;2024-03-23T04:21:17;15.15;;;7.03;;
60464;SDS011;46314;52.392;9.758;2024-03-23T04:23:43;16.05;;;5.70;;
60464;SDS011;46314;52.392;9.758;2024-03-23T04:26:09;12.43;;;5.00;;
60464;SDS011;46314;52.392;9.758;2024-03-23T04:28:34;13.73;;;4.90;;
60464;SDS011;46314;52.392;9.758;2024-03-23T04:31:03;11.40;;;4.28;;
60464;SDS011;46314;52.392;9.758;2024-03-23T04:33:28;13.18;;;4.97;;
60464;SDS011;46314;52.392;9.758;2024-03-23T04:35:54;11.27;;;4.68;;
60464;SDS011;46314;52.392;9.758;2024-03-23T04:38:19;12.15;;;4.85;;
60464;SDS011;46314;52.392;9.758;2024-03-23T04:40:47;11.70;;;4.97;;
60464;SDS011;46314;52.392;9.758;2024-03-23T04:43:19;11.75;;;4.53;;
60464;SDS011;46314;52.392;9.758;2024-03-23T04:45:44;14.85;;;5.70;;
60464;SDS011;46314;52.392;9.758;2024-03-23T04:48:10;16.75;;;5.22;;
60464;SDS011;46314;52.392;9.758;2024-03-23T04:50:35;15.00;;;5.22;;
60464;SDS011;46314;52.392;9.758;2024-03-23T04:53:01;14.63;;;5.85;;
60464;SDS011;46314;52.392;9.758;2024-03-23T04:55:26;18.40;;;5.70;;
60464;SDS011;46314;52.392;9.758;2024-03-23T04:57:53;12.63;;;4.55;;
60464;SDS011;46314;52.392;9.758;2024-03-23T05:00:19;18.80;;;5.88;;
60464;SDS011;46314;52.392;9.758;2024-03-23T05:02:44;15.55;;;5.72;;
60464;SDS011;46314;52.392;9.758;2024-03-23T05:05:10;14.77;;;6.68;;
60464;SDS011;46314;52.392;9.758;2024-03-23T05:07:35;14.00;;;5.50;;
60464;SDS011;46314;52.392;9.758;2024-03-23T05:10:01;13.52;;;5.57;;
60464;SDS011;46314;52.392;9.758;2024-03-23T05:12:26;18.83;;;5.57;;
60464;SDS011;46314;52.392;9.758;2024-03-23T05:14:53;14.57;;;5.47;;
60464;SDS011;46314;52.392;9.758;2024-03-23T05:17:18;13.40;;;5.55;;
60464;SDS011;46314;52.392;9.758;2024-03-23T05:19:44;18.35;;;5.38;;
60464;SDS011;46314;52.392;9.758;2024-03-23T05:22:09;10.43;;;4.22;;
60464;SDS011;46314;52.392;9.758;2024-03-23T05:24:35;10.63;;;4.45;;
60464;SDS011;46314;52.392;9.758;2024-03-23T05:27:00;12.80;;;3.58;;
60464;SDS011;46314;52.392;9.758;2024-03-23T05:29:26;10.68;;;4.00;;
60464;SDS011;46314;52.392;9.758;2024-03-23T05:31:53;10.68;;;3.60;;
60464;SDS011;46314;52.392;9.758;2024-03-23T05:34:18;9.18;;;2.88;;
60464;SDS011;46314;52.392;9.758;2024-03-23T05:36:44;7.05;;;2.85;;
60464;SDS011;46314;52.392;9.758;2024-03-23T05:39:09;9.60;;;2.85;;
60464;SDS011;46314;52.392;9.758;2024-03-23T05:41:35;8.88;;;3.25;;
60464;SDS011;46314;52.392;9.758;2024-03-23T05:44:00;11.48;;;4.53;;
60464;SDS011;46314;52.392;9.758;2024-03-23T05:46:26;8.68;;;2.90;;
60464;SDS011;46314;52.392;9.758;2024-03-23T05:48:52;8.07;;;2.88;;
60464;SDS011;46314;52.392;9.758;2024-03-23T05:51:19;7.75;;;2.90;;
60464;SDS011;46314;52.392;9.758;2024-03-23T05:53:44;12.02;;;3.33;;
60464;SDS011;46314;52.392;9.758;2024-03-23T05:56:10;8.85;;;2.67;;
60464;SDS011;46314;52.392;9.758;2024-03-23T05:58:35;9.20;;;3.03;;
60464;SDS011;46314;52.392;9.758;2024-03-23T06:01:01;10.85;;;2.40;;
60464;SDS011;46314;52.392;9.758;2024-03-23T06:03:27;8.10;;;3.55;;
60464;SDS011;46314;52.392;9.758;2024-03-23T06:05:54;7.90;;;2.55;;
60464;SDS011;46314;52.392;9.758;2024-03-23T06:08:20;7.82;;;2.35;;
60464;SDS011;46314;52.392;9.758;2024-03-23T06:10:46;14.30;;;3.50;;
60464;SDS011;46314;52.392;9.758;2024-03-23T06:13:12;9.85;;;2.72;;
60464;SDS011;46314;52.392;9.758;2024-03-23T06:15:38;9.68;;;3.70;;
60464;SDS011;46314;52.392;9.758;2024-03-23T06:18:04;8.35;;;2.42;;
60464;SDS011;46314;52.392;9.758;2024-03-23T06:20:30;8.52;;;3.63;;
60464;SDS011;46314;52.392;9.758;2024-03-23T06:22:57;12.15;;;2.85;;
60464;SDS011;46314;52.392;9.758;2024-03-23T06:25:22;8.40;;;2.95;;
60464;SDS011;46314;52.392;9.758;2024-03-23T06:27:48;8.32;;;3.28;;
60464;SDS011;46314;52.392;9.758;2024-03-23T06:30:13;9.80;;;3.58;;
60464;SDS011;46314;52.392;9.758;2024-03-23T06:32:39;8.77;;;3.17;;
60464;SDS011;46314;52.392;9.758;2024-03-23T06:35:04;8.20;;;3.38;;
60464;SDS011;46314;52.392;9.758;2024-03-23T06:37:30;11.13;;;3.63;;
60464;SDS011;46314;52.392;9.758;2024-03-23T06:39:57;14.43;;;4.82;;
60464;SDS011;46314;52.392;9.758;2024-03-23T06:42:22;11.80;;;4.53;;
60464;SDS011;46314;52.392;9.758;2024-03-23T06:44:48;13.82;;;5.25;;
60464;SDS011;46314;52.392;9.758;2024-03-23T06:47:13;13.68;;;4.68;;
60464;SDS011;46314;52.392;9.758;2024-03-23T06:49:39;13.30;;;4.82;;
60464;SDS011;46314;52.392;9.758;2024-03-23T06:52:04;13.98;;;4.65;;
60464;SDS011;46314;52.392;9.758;2024-03-23T06:54:30;12.93;;;5.47;;
60464;SDS011;46314;52.392;9.758;2024-03-23T06:56:57;17.95;;;5.32;;
60464;SDS011;46314;52.392;9.758;2024-03-23T06:59:23;20.40;;;6.20;;
60464;SDS011;46314;52.392;9.758;2024-03-23T07:01:48;24.73;;;7.10;;
60464;SDS011;46314;52.392;9.758;2024-03-23T07:04:13;21.02;;;7.00;;
60464;SDS011;46314;52.392;9.758;2024-03-23T07:06:42;21.40;;;6.35;;
60464;SDS011;46314;52.392;9.758;2024-03-23T07:09:08;18.15;;;6.60;;
60464;SDS011;46314;52.392;9.758;2024-03-23T07:11:33;22.50;;;8.18;;
60464;SDS011;46314;52.392;9.758;2024-03-23T07:14:00;16.02;;;7.35;;
60464;SDS011;46314;52.392;9.758;2024-03-23T07:16:26;15.75;;;6.57;;
60464;SDS011;46314;52.392;9.758;2024-03-23T07:18:52;16.60;;;7.15;;
60464;SDS011;46314;52.392;9.758;2024-03-23T07:21:17;19.52;;;8.10;;
60464;SDS011;46314;52.392;9.758;2024-03-23T07:23:43;23.35;;;7.65;;
60464;SDS011;46314;52.392;9.758;2024-03-23T07:26:08;16.73;;;7.82;;
60464;SDS011;46314;52.392;9.758;2024-03-23T07:28:34;24.67;;;9.07;;
60464;SDS011;46314;52.392;9.758;2024-03-23T07:31:03;17.10;;;8.35;;
60464;SDS011;46314;52.392;9.758;2024-03-23T07:33:29;19.00;;;8.32;;
60464;SDS011;46314;52.392;9.758;2024-03-23T07:35:54;21.60;;;9.00;;
60464;SDS011;46314;52.392;9.758;2024-03-23T07:38:21;22.33;;;8.38;;
60464;SDS011;46314;52.392;9.758;2024-03-23T07:40:46;23.83;;;8.10;;
60464;SDS011;46314;52.392;9.758;2024-03-23T07:43:12;28.17;;;9.73;;
60464;SDS011;46314;52.392;9.758;2024-03-23T07:45:37;27.80;;;10.45;;
60464;SDS011;46314;52.392;9.758;2024-03-23T07:48:04;25.40;;;8.55;;
60464;SDS011;46314;52.392;9.758;2024-03-23T07:50:30;26.38;;;8.82;;
60464;SDS011;46314;52.392;9.758;2024-03-23T07:52:56;23.35;;;10.13;;
60464;SDS011;46314;52.392;9.758;2024-03-23T07:55:21;24.67;;;9.25;;
60464;SDS011;46314;52.392;9.758;2024-03-23T07:57:47;30.70;;;10.27;;
60464;SDS011;46314;52.392;9.758;2024-03-23T08:00:13;25.85;;;10.27;;
60464;SDS011;46314;52.392;9.758;2024-03-23T08:02:39;27.35;;;10.38;;
60464;SDS011;46314;52.392;9.758;2024-03-23T08:05:06;20.48;;;8.77;;
60464;SDS011;46314;52.392;9.758;2024-03-23T08:07:31;30.67;;;10.32;;
60464;SDS011;46314;52.392;9.758;2024-03-23T08:09:57;31.77;;;10.48;;
60464;SDS011;46314;52.392;9.758;2024-03-23T08:12:22;29.83;;;10.95;;
60464;SDS011;46314;52.392;9.758;2024-03-23T08:14:48;27.33;;;12.07;;
60464;SDS011;46314;52.392;9.758;2024-03-23T08:17:13;34.42;;;11.55;;
60464;SDS011;46314;52.392;9.758;2024-03-23T08:19:39;30.10;;;11.25;;
60464;SDS011;46314;52.392;9.758;2024-03-23T08:22:05;21.63;;;10.20;;
60464;SDS011;46314;52.392;9.758;2024-03-23T08:24:31;22.33;;;10.40;;
60464;SDS011;46314;52.392;9.758;2024-03-23T08:26:56;23.73;;;10.57;;
60464;SDS011;46314;52.392;9.758;2024-03-23T08:29:22;25.15;;;10.90;;
60464;SDS011;46314;52.392;9.758;2024-03-23T08:31:47;30.83;;;13.07;;
60464;SDS011;46314;52.392;9.758;2024-03-23T08:34:13;25.45;;;11.30;;
60464;SDS011;46314;52.392;9.758;2024-03-23T08:36:38;25.48;;;11.45;;
60464;SDS011;46314;52.392;9.758;2024-03-23T08:39:05;25.10;;;11.90;;
60464;SDS011;46314;52.392;9.758;2024-03-23T08:41:31;25.52;;;10.55;;
60464;SDS011;46314;52.392;9.758;2024-03-23T08:43:56;19.98;;;10.18;;
60464;SDS011;46314;52.392;9.758;2024-03-23T08:46:22;18.20;;;9.07;;
60464;SDS011;46314;52.392;9.758;2024-03-23T08:48:47;16.95;;;8.98;;
60464;SDS011;46314;52.392;9.758;2024-03-23T08:51:13;17.83;;;8.25;;
60464;SDS011;46314;52.392;9.758;2024-03-23T08:53:40;16.60;;;6.68;;
60464;SDS011;46314;52.392;9.758;2024-03-23T08:56:07;19.23;;;8.63;;
60464;SDS011;46314;52.392;9.758;2024-03-23T08:58:35;21.15;;;8.73;;
60464;SDS011;46314;52.392;9.758;2024-03-23T09:01:06;19.58;;;8.00;;
60464;SDS011;46314;52.392;9.758;2024-03-23T09:03:32;21.38;;;8.15;;
60464;SDS011;46314;52.392;9.758;2024-03-23T09:05:58;16.23;;;6.45;;
60464;SDS011;46314;52.392;9.758;2024-03-23T09:08:24;18.25;;;7.28;;
60464;SDS011;46314;52.392;9.758;2024-03-23T09:10:52;18.67;;;6.78;;
60464;SDS011;46314;52.392;9.758;2024-03-23T09:13:19;21.48;;;7.45;;
60464;SDS011;46314;52.392;9.758;2024-03-23T09:15:47;18.58;;;7.82;;
60464;SDS011;46314;52.392;9.758;2024-03-23T09:18:14;20.13;;;7.38;;
60464;SDS011;46314;52.392;9.758;2024-03-23T09:20:39;15.30;;;7.15;;
60464;SDS011;46314;52.392;9.758;2024-03-23T09:23:05;16.73;;;6.70;;
60464;SDS011;46314;52.392;9.758;2024-03-23T09:25:30;11.60;;;5.82;;
60464;SDS011;46314;52.392;9.758;2024-03-23T09:27:56;21.23;;;7.15;;
60464;SDS011;46314;52.392;9.758;2024-03-23T09:30:24;18.88;;;6.95;;
60464;SDS011;46314;52.392;9.758;2024-03-23T09:32:50;18.00;;;7.70;;
60464;SDS011;46314;52.392;9.758;2024-03-23T09:35:15;23.23;;;7.97;;
60464;SDS011;46314;52.392;9.758;2024-03-23T09:37:41;16.20;;;6.85;;
60464;SDS011;46314;52.392;9.758;2024-03-23T09:40:08;16.20;;;6.47;;
60464;SDS011;46314;52.392;9.758;2024-03-23T09:42:35;17.45;;;6.85;;
60464;SDS011;46314;52.392;9.758;2024-03-23T09:45:00;14.27;;;5.85;;
60464;SDS011;46314;52.392;9.758;2024-03-23T09:47:28;19.83;;;6.30;;
60464;SDS011;46314;52.392;9.758;2024-03-23T09:49:54;16.10;;;6.05;;
60464;SDS011;46314;52.392;9.758;2024-03-23T09:52:20;15.65;;;6.50;;
60464;SDS011;46314;52.392;9.758;2024-03-23T09:54:45;14.73;;;4.47;;
60464;SDS011;46314;52.392;9.758;2024-03-23T09:57:11;10.80;;;4.65;;
60464;SDS011;46314;52.392;9.758;2024-03-23T09:59:36;12.80;;;4.75;;
60464;SDS011;46314;52.392;9.758;2024-03-23T10:02:02;11.25;;;4.63;;
60464;SDS011;46314;52.392;9.758;2024-03-23T10:04:39;9.93;;;3.70;;
60464;SDS011;46314;52.392;9.758;2024-03-23T10:07:12;9.07;;;4.30;;
60464;SDS011;46314;52.392;9.758;2024-03-23T10:09:38;11.07;;;3.92;;
60464;SDS011;46314;52.392;9.758;2024-03-23T10:12:07;12.07;;;3.65;;
60464;SDS011;46314;52.392;9.758;2024-03-23T10:14:34;11.30;;;3.90;;
60464;SDS011;46314;52.392;9.758;2024-03-23T10:17:08;10.95;;;4.05;;
60464;SDS011;46314;52.392;9.758;2024-03-23T10:19:38;9.40;;;3.67;;
60464;SDS011;46314;52.392;9.758;2024-03-23T10:22:04;9.45;;;3.83;;
60464;SDS011;46314;52.392;9.758;2024-03-23T10:24:29;12.68;;;4.25;;
60464;SDS011;46314;52.392;9.758;2024-03-23T10:26:55;8.75;;;3.60;;
60464;SDS011;46314;52.392;9.758;2024-03-23T10:29:21;7.53;;;3.58;;
60464;SDS011;46314;52.392;9.758;2024-03-23T10:31:47;9.70;;;3.88;;
60464;SDS011;46314;52.392;9.758;2024-03-23T10:34:12;7.30;;;2.65;;
60464;SDS011;46314;52.392;9.758;2024-03-23T10:36:39;11.43;;;3.45;;
60464;SDS011;46314;52.392;9.758;2024-03-23T10:39:07;7.35;;;2.97;;
60464;SDS011;46314;52.392;9.758;2024-03-23T10:41:32;9.50;;;3.15;;
60464;SDS011;46314;52.392;9.758;2024-03-23T10:43:58;8.77;;;3.70;;
60464;SDS011;46314;52.392;9.758;2024-03-23T10:46:26;8.45;;;3.33;;
60464;SDS011;46314;52.392;9.758;2024-03-23T10:48:52;9.95;;;3.17;;
60464;SDS011;46314;52.392;9.758;2024-03-23T10:51:18;3.50;;;1.75;;
60464;SDS011;46314;52.392;9.758;2024-03-23T10:53:45;5.15;;;2.17;;
60464;SDS011;46314;52.392;9.758;2024-03-23T10:56:11;4.68;;;2.00;;
60464;SDS011;46314;52.392;9.758;2024-03-23T10:58:39;6.53;;;2.42;;
60464;SDS011;46314;52.392;9.758;2024-03-23T11:01:06;5.03;;;1.85;;
60464;SDS011;46314;52.392;9.758;2024-03-23T11:03:33;4.45;;;2.10;;
60464;SDS011;46314;52.392;9.758;2024-03-23T11:06:00;4.97;;;2.17;;
60464;SDS011;46314;52.392;9.758;2024-03-23T11:08:33;3.90;;;1.40;;
60464;SDS011;46314;52.392;9.758;2024-03-23T11:11:13;2.90;;;1.00;;
60464;SDS011;46314;52.392;9.758;2024-03-23T11:13:40;3.65;;;2.03;;
60464;SDS011;46314;52.392;9.758;2024-03-23T11:16:15;5.38;;;2.88;;
60464;SDS011;46314;52.392;9.758;2024-03-23T11:18:42;4.95;;;2.63;;
60464;SDS011;46314;52.392;9.758;2024-03-23T11:21:08;7.03;;;3.15;;
60464;SDS011;46314;52.392;9.758;2024-03-23T11:23:33;7.38;;;3.30;;
60464;SDS011;46314;52.392;9.758;2024-03-23T11:25:59;16.65;;;3.30;;
60464;SDS011;46314;52.392;9.758;2024-03-23T11:28:26;8.48;;;3.00;;
60464;SDS011;46314;52.392;9.758;2024-03-23T11:30:51;5.93;;;2.60;;
60464;SDS011;46314;52.392;9.758;2024-03-23T11:33:17;6.68;;;2.70;;
60464;SDS011;46314;52.392;9.758;2024-03-23T11:35:43;6.80;;;2.63;;
60464;SDS011;46314;52.392;9.758;2024-03-23T11:38:09;6.45;;;3.70;;
60464;SDS011;46314;52.392;9.758;2024-03-23T11:40:36;5.65;;;2.95;;
60464;SDS011;46314;52.392;9.758;2024-03-23T11:43:04;6.00;;;3.65;;
60464;SDS011;46314;52.392;9.758;2024-03-23T11:45:35;6.95;;;3.50;;
60464;SDS011;46314;52.392;9.758;2024-03-23T11:48:05;6.95;;;3.08;;
60464;SDS011;46314;52.392;9.758;2024-03-23T11:50:32;6.05;;;2.95;;
60464;SDS011;46314;52.392;9.758;2024-03-23T11:53:09;6.10;;;2.17;;
60464;SDS011;46314;52.392;9.758;2024-03-23T11:55:45;3.38;;;1.83;;
60464;SDS011;46314;52.392;9.758;2024-03-23T11:58:11;4.15;;;1.80;;
60464;SDS011;46314;52.392;9.758;2024-03-23T12:00:38;3.60;;;1.73;;
60464;SDS011;46314;52.392;9.758;2024-03-23T12:03:04;3.63;;;1.75;;
60464;SDS011;46314;52.392;9.758;2024-03-23T12:05:30;3.55;;;1.60;;
60464;SDS011;46314;52.392;9.758;2024-03-23T12:10:40;4.72;;;2.00;;
60464;SDS011;46314;52.392;9.758;2024-03-23T12:13:06;6.40;;;2.45;;
60464;SDS011;46314;52.392;9.758;2024-03-23T12:15:33;4.07;;;1.80;;
60464;SDS011;46314;52.392;9.758;2024-03-23T12:18:07;4.20;;;2.53;;
60464;SDS011;46314;52.392;9.758;2024-03-23T12:20:33;4.47;;;2.22;;
60464;SDS011;46314;52.392;9.758;2024-03-23T12:23:04;6.03;;;2.45;;
60464;SDS011;46314;52.392;9.758;2024-03-23T12:25:30;7.05;;;3.72;;
60464;SDS011;46314;52.392;9.758;2024-03-23T12:27:57;4.22;;;1.92;;
60464;SDS011;46314;52.392;9.758;2024-03-23T12:30:23;6.35;;;2.05;;
60464;SDS011;46314;52.392;9.758;2024-03-23T12:32:49;3.97;;;2.50;;
60464;SDS011;46314;52.392;9.758;2024-03-23T12:35:16;6.13;;;2.17;;
60464;SDS011;46314;52.392;9.758;2024-03-23T12:37:41;6.82;;;2.50;;
60464;SDS011;46314;52.392;9.758;2024-03-23T12:40:07;5.10;;;2.45;;
60464;SDS011;46314;52.392;9.758;2024-03-23T12:42:33;7.25;;;2.15;;
60464;SDS011;46314;52.392;9.758;2024-03-23T12:44:59;5.07;;;2.53;;
60464;SDS011;46314;52.392;9.758;2024-03-23T12:47:24;7.50;;;2.60;;
60464;SDS011;46314;52.392;9.758;2024-03-23T12:49:50;3.78;;;1.92;;
60464;SDS011;46314;52.392;9.758;2024-03-23T12:52:17;5.03;;;2.50;;
60464;SDS011;46314;52.392;9.758;2024-03-23T12:54:43;3.08;;;1.80;;
60464;SDS011;46314;52.392;9.758;2024-03-23T12:57:08;3.63;;;1.63;;
60464;SDS011;46314;52.392;9.758;2024-03-23T12:59:34;1.60;;;1.00;;
60464;SDS011;46314;52.392;9.758;2024-03-23T13:01:59;1.88;;;1.00;;
60464;SDS011;46314;52.392;9.758;2024-03-23T13:04:25;2.90;;;0.90;;
60464;SDS011;46314;52.392;9.758;2024-03-23T13:06:50;1.98;;;1.08;;
60464;SDS011;46314;52.392;9.758;2024-03-23T13:09:17;3.90;;;1.48;;
60464;SDS011;46314;52.392;9.758;2024-03-23T13:11:43;1.10;;;0.80;;
60464;SDS011;46314;52.392;9.758;2024-03-23T13:14:08;6.72;;;1.42;;
60464;SDS011;46314;52.392;9.758;2024-03-23T13:16:34;4.30;;;1.38;;
60464;SDS011;46314;52.392;9.758;2024-03-23T13:18:59;2.47;;;1.15;;
60464;SDS011;46314;52.392;9.758;2024-03-23T13:21:25;2.83;;;1.42;;
60464;SDS011;46314;52.392;9.758;2024-03-23T13:23:50;4.07;;;1.63;;
60464;SDS011;46314;52.392;9.758;2024-03-23T13:26:17;4.03;;;1.85;;
60464;SDS011;46314;52.392;9.758;2024-03-23T13:28:43;4.63;;;2.15;;
60464;SDS011;46314;52.392;9.758;2024-03-23T13:31:08;5.13;;;1.95;;
60464;SDS011;46314;52.392;9.758;2024-03-23T13:33:34;2.83;;;1.77;;
60464;SDS011;46314;52.392;9.758;2024-03-23T13:35:59;2.88;;;1.90;;
60464;SDS011;46314;52.392;9.758;2024-03-23T13:38:25;3.63;;;2.03;;
60464;SDS011;46314;52.392;9.758;2024-03-23T13:40:54;4.28;;;2.05;;
60464;SDS011;46314;52.392;9.758;2024-03-23T13:43:22;3.03;;;1.70;;
60464;SDS011;46314;52.392;9.758;2024-03-23T13:45:49;7.03;;;2.88;;
60464;SDS011;46314;52.392;9.758;2024-03-23T13:48:18;3.70;;;1.92;;
60464;SDS011;46314;52.392;9.758;2024-03-23T13:50:44;3.42;;;1.75;;
60464;SDS011;46314;52.392;9.758;2024-03-23T13:53:10;3.30;;;2.60;;
60464;SDS011;46314;52.392;9.758;2024-03-23T13:55:35;5.97;;;2.45;;
60464;SDS011;46314;52.392;9.758;2024-03-23T13:58:01;4.28;;;2.15;;
60464;SDS011;46314;52.392;9.758;2024-03-23T14:00:28;6.10;;;2.10;;
60464;SDS011;46314;52.392;9.758;2024-03-23T14:02:53;4.45;;;2.20;;
60464;SDS011;46314;52.392;9.758;2024-03-23T14:05:19;3.55;;;1.95;;
60464;SDS011;46314;52.392;9.758;2024-03-23T14:07:44;4.70;;;2.15;;
60464;SDS011;46314;52.392;9.758;2024-03-23T14:10:10;6.03;;;2.55;;
60464;SDS011;46314;52.392;9.758;2024-03-23T14:12:35;4.82;;;1.67;;
60464;SDS011;46314;52.392;9.758;2024-03-23T14:15:03;3.40;;;1.63;;
60464;SDS011;46314;52.392;9.758;2024-03-23T14:17:32;6.63;;;2.28;;
60464;SDS011;46314;52.392;9.758;2024-03-23T14:19:58;3.72;;;2.33;;
60464;SDS011;46314;52.392;9.758;2024-03-23T14:22:23;4.70;;;2.20;;
60464;SDS011;46314;52.392;9.758;2024-03-23T14:24:49;3.30;;;1.80;;
60464;SDS011;46314;52.392;9.758;2024-03-23T14:27:14;5.10;;;1.67;;
60464;SDS011;46314;52.392;9.758;2024-03-23T14:29:40;4.88;;;2.20;;
60464;SDS011;46314;52.392;9.758;2024-03-23T14:32:06;5.65;;;2.00;;
60464;SDS011;46314;52.392;9.758;2024-03-23T14:34:33;3.05;;;1.40;;
60464;SDS011;46314;52.392;9.758;2024-03-23T14:36:58;3.67;;;1.80;;
60464;SDS011;46314;52.392;9.758;2024-03-23T14:39:24;3.58;;;1.88;;
60464;SDS011;46314;52.392;9.758;2024-03-23T14:41:49;5.38;;;1.50;;
60464;SDS011;46314;52.392;9.758;2024-03-23T14:44:15;4.60;;;1.40;;
60464;SDS011;46314;52.392;9.758;2024-03-23T14:46:40;1.75;;;0.80;;
60464;SDS011;46314;52.392;9.758;2024-03-23T14:49:06;3.03;;;0.60;;
60464;SDS011;46314;52.392;9.758;2024-03-23T14:51:33;1.67;;;0.93;;
60464;SDS011;46314;52.392;9.758;2024-03-23T14:53:58;0.80;;;0.80;;
60464;SDS011;46314;52.392;9.758;2024-03-23T14:56:24;3.78;;;0.70;;
60464;SDS011;46314;52.392;9.758;2024-03-23T14:58:52;2.78;;;0.70;;
60464;SDS011;46314;52.392;9.758;2024-03-23T15:01:17;2.13;;;0.70;;
60464;SDS011;46314;52.392;9.758;2024-03-23T15:03:43;1.85;;;0.52;;
60464;SDS011;46314;52.392;9.758;2024-03-23T15:06:08;1.60;;;0.60;;
60464;SDS011;46314;52.392;9.758;2024-03-23T15:08:35;2.80;;;0.80;;
60464;SDS011;46314;52.392;9.758;2024-03-23T15:11:01;3.60;;;0.88;;
60464;SDS011;46314;52.392;9.758;2024-03-23T15:13:26;2.55;;;1.20;;
60464;SDS011;46314;52.392;9.758;2024-03-23T15:15:52;1.80;;;0.98;;
60464;SDS011;46314;52.392;9.758;2024-03-23T15:18:18;2.47;;;1.23;;
60464;SDS011;46314;52.392;9.758;2024-03-23T15:20:51;2.42;;;1.00;;
60464;SDS011;46314;52.392;9.758;2024-03-23T15:23:17;2.78;;;1.08;;
60464;SDS011;46314;52.392;9.758;2024-03-23T15:25:44;3.88;;;1.17;;
60464;SDS011;46314;52.392;9.758;2024-03-23T15:28:09;3.03;;;1.10;;